sensor_id;sensor_type;location;lat;lon;timestamp;P1;durP1;ratioP1;P2;durP2;ratioP2
19032;SDS011;9649;51.042;13.804;2023-04-25T00:01:42;5.57;;;2.60;;
19032;SDS011;9649;51.042;13.804;2023-04-25T00:06:45;5.70;;;2.40;;
19032;SDS011;9649;51.042;13.804;2023-04-25T00:11:47;4.97;;;2.60;;
19032;SDS011;9649;51.042;13.804;2023-04-25T00:16:51;4.40;;;2.30;;
19032;SDS011;9649;51.042;13.804;2023-04-25T00:21:55;5.13;;;2.40;;
19032;SDS011;9649;51.042;13.804;2023-04-25T00:26:58;3.30;;;2.47;;
19032;SDS011;9649;51.042;13.804;2023-04-25T00:32:02;3.57;;;2.20;;
19032;SDS011;9649;51.042;13.804;2023-04-25T00:37:05;3.43;;;2.07;;
19032;SDS011;9649;51.042;13.804;2023-04-25T00:42:08;4.70;;;2.60;;
19032;SDS011;9649;51.042;13.804;2023-04-25T00:47:12;6.60;;;2.20;;
19032;SDS011;9649;51.042;13.804;2023-04-25T00:52:15;7.37;;;3.40;;
19032;SDS011;9649;51.042;13.804;2023-04-25T00:57:18;5.70;;;2.50;;
19032;SDS011;9649;51.042;13.804;2023-04-25T01:02:22;3.80;;;2.50;;
19032;SDS011;9649;51.042;13.804;2023-04-25T01:07:26;4.40;;;3.27;;
19032;SDS011;9649;51.042;13.804;2023-04-25T01:12:29;6.67;;;2.87;;
19032;SDS011;9649;51.042;13.804;2023-04-25T01:17:34;5.47;;;2.87;;
19032;SDS011;9649;51.042;13.804;2023-04-25T01:22:39;4.37;;;2.90;;
19032;SDS011;9649;51.042;13.804;2023-04-25T01:27:41;7.00;;;3.53;;
19032;SDS011;9649;51.042;13.804;2023-04-25T01:32:44;6.33;;;3.00;;
19032;SDS011;9649;51.042;13.804;2023-04-25T01:37:50;6.23;;;3.30;;
19032;SDS011;9649;51.042;13.804;2023-04-25T01:42:53;7.87;;;3.40;;
19032;SDS011;9649;51.042;13.804;2023-04-25T01:47:56;6.47;;;3.20;;
19032;SDS011;9649;51.042;13.804;2023-04-25T01:53:02;7.63;;;3.67;;
19032;SDS011;9649;51.042;13.804;2023-04-25T01:58:04;4.87;;;3.07;;
19032;SDS011;9649;51.042;13.804;2023-04-25T02:03:10;7.33;;;3.53;;
19032;SDS011;9649;51.042;13.804;2023-04-25T02:08:16;5.53;;;3.27;;
19032;SDS011;9649;51.042;13.804;2023-04-25T02:13:19;5.53;;;3.50;;
19032;SDS011;9649;51.042;13.804;2023-04-25T02:18:22;6.63;;;3.47;;
19032;SDS011;9649;51.042;13.804;2023-04-25T02:23:26;9.33;;;3.70;;
19032;SDS011;9649;51.042;13.804;2023-04-25T02:28:30;5.77;;;3.40;;
19032;SDS011;9649;51.042;13.804;2023-04-25T02:33:32;7.43;;;3.90;;
19032;SDS011;9649;51.042;13.804;2023-04-25T02:38:37;6.67;;;3.90;;
19032;SDS011;9649;51.042;13.804;2023-04-25T02:43:40;9.00;;;4.10;;
19032;SDS011;9649;51.042;13.804;2023-04-25T02:48:42;9.73;;;3.60;;
19032;SDS011;9649;51.042;13.804;2023-04-25T02:53:46;7.60;;;4.10;;
19032;SDS011;9649;51.042;13.804;2023-04-25T02:58:49;9.63;;;3.73;;
19032;SDS011;9649;51.042;13.804;2023-04-25T03:03:52;8.13;;;3.37;;
19032;SDS011;9649;51.042;13.804;2023-04-25T03:08:57;9.73;;;3.97;;
19032;SDS011;9649;51.042;13.804;2023-04-25T03:13:59;8.17;;;4.33;;
19032;SDS011;9649;51.042;13.804;2023-04-25T03:19:02;7.37;;;4.07;;
19032;SDS011;9649;51.042;13.804;2023-04-25T03:24:07;9.33;;;4.70;;
19032;SDS011;9649;51.042;13.804;2023-04-25T03:29:09;7.70;;;4.77;;
19032;SDS011;9649;51.042;13.804;2023-04-25T03:34:12;9.70;;;5.17;;
19032;SDS011;9649;51.042;13.804;2023-04-25T03:39:17;8.07;;;4.50;;
19032;SDS011;9649;51.042;13.804;2023-04-25T03:44:19;9.60;;;4.90;;
19032;SDS011;9649;51.042;13.804;2023-04-25T03:49:22;12.17;;;5.20;;
19032;SDS011;9649;51.042;13.804;2023-04-25T03:54:26;7.60;;;4.67;;
19032;SDS011;9649;51.042;13.804;2023-04-25T03:59:29;9.87;;;4.50;;
19032;SDS011;9649;51.042;13.804;2023-04-25T04:04:32;7.57;;;4.90;;
19032;SDS011;9649;51.042;13.804;2023-04-25T04:09:36;10.33;;;5.00;;
19032;SDS011;9649;51.042;13.804;2023-04-25T04:14:39;8.83;;;5.50;;
19032;SDS011;9649;51.042;13.804;2023-04-25T04:19:42;20.13;;;10.90;;
19032;SDS011;9649;51.042;13.804;2023-04-25T04:24:46;8.87;;;5.40;;
19032;SDS011;9649;51.042;13.804;2023-04-25T04:29:50;11.23;;;5.20;;
19032;SDS011;9649;51.042;13.804;2023-04-25T04:34:54;12.70;;;5.97;;
19032;SDS011;9649;51.042;13.804;2023-04-25T04:39:58;14.07;;;5.97;;
19032;SDS011;9649;51.042;13.804;2023-04-25T04:45:02;11.20;;;5.07;;
19032;SDS011;9649;51.042;13.804;2023-04-25T04:50:05;8.00;;;4.80;;
19032;SDS011;9649;51.042;13.804;2023-04-25T04:55:10;10.87;;;4.97;;
19032;SDS011;9649;51.042;13.804;2023-04-25T05:00:13;7.60;;;4.90;;
19032;SDS011;9649;51.042;13.804;2023-04-25T05:05:17;9.87;;;4.77;;
19032;SDS011;9649;51.042;13.804;2023-04-25T05:10:21;11.93;;;5.67;;
19032;SDS011;9649;51.042;13.804;2023-04-25T05:15:24;9.97;;;5.33;;
19032;SDS011;9649;51.042;13.804;2023-04-25T05:20:26;8.77;;;4.87;;
19032;SDS011;9649;51.042;13.804;2023-04-25T05:25:30;8.17;;;4.70;;
19032;SDS011;9649;51.042;13.804;2023-04-25T05:30:34;7.37;;;4.90;;
19032;SDS011;9649;51.042;13.804;2023-04-25T05:35:37;7.50;;;4.40;;
19032;SDS011;9649;51.042;13.804;2023-04-25T05:40:41;10.80;;;4.53;;
19032;SDS011;9649;51.042;13.804;2023-04-25T05:45:44;12.83;;;5.00;;
19032;SDS011;9649;51.042;13.804;2023-04-25T05:50:47;9.33;;;4.27;;
19032;SDS011;9649;51.042;13.804;2023-04-25T05:55:51;10.63;;;4.37;;
19032;SDS011;9649;51.042;13.804;2023-04-25T06:00:53;13.73;;;4.93;;
19032;SDS011;9649;51.042;13.804;2023-04-25T06:05:56;8.97;;;3.90;;
19032;SDS011;9649;51.042;13.804;2023-04-25T06:11:00;8.90;;;4.13;;
19032;SDS011;9649;51.042;13.804;2023-04-25T06:16:03;14.40;;;5.10;;
19032;SDS011;9649;51.042;13.804;2023-04-25T06:21:07;8.97;;;4.17;;
19032;SDS011;9649;51.042;13.804;2023-04-25T06:26:11;10.37;;;5.10;;
19032;SDS011;9649;51.042;13.804;2023-04-25T06:31:13;13.33;;;4.77;;
19032;SDS011;9649;51.042;13.804;2023-04-25T06:36:16;11.90;;;4.97;;
19032;SDS011;9649;51.042;13.804;2023-04-25T06:41:20;9.63;;;4.47;;
19032;SDS011;9649;51.042;13.804;2023-04-25T06:46:23;8.57;;;4.40;;
19032;SDS011;9649;51.042;13.804;2023-04-25T06:51:26;10.87;;;4.40;;
19032;SDS011;9649;51.042;13.804;2023-04-25T06:56:32;12.00;;;4.23;;
19032;SDS011;9649;51.042;13.804;2023-04-25T07:01:34;9.50;;;4.50;;
19032;SDS011;9649;51.042;13.804;2023-04-25T07:06:37;9.57;;;4.30;;
19032;SDS011;9649;51.042;13.804;2023-04-25T07:11:45;9.03;;;4.50;;
19032;SDS011;9649;51.042;13.804;2023-04-25T07:16:47;7.83;;;3.80;;
19032;SDS011;9649;51.042;13.804;2023-04-25T07:21:50;8.60;;;4.20;;
19032;SDS011;9649;51.042;13.804;2023-04-25T07:26:55;9.13;;;3.70;;
19032;SDS011;9649;51.042;13.804;2023-04-25T07:31:59;7.73;;;3.50;;
19032;SDS011;9649;51.042;13.804;2023-04-25T07:37:01;8.83;;;3.50;;
19032;SDS011;9649;51.042;13.804;2023-04-25T07:42:06;5.93;;;3.60;;
19032;SDS011;9649;51.042;13.804;2023-04-25T07:47:09;9.38;;;3.58;;
19032;SDS011;9649;51.042;13.804;2023-04-25T07:52:12;8.60;;;4.05;;
19032;SDS011;9649;51.042;13.804;2023-04-25T07:57:16;7.90;;;3.60;;
19032;SDS011;9649;51.042;13.804;2023-04-25T08:02:20;7.65;;;3.25;;
19032;SDS011;9649;51.042;13.804;2023-04-25T08:07:23;7.93;;;2.78;;
19032;SDS011;9649;51.042;13.804;2023-04-25T08:12:27;12.50;;;3.35;;
19032;SDS011;9649;51.042;13.804;2023-04-25T08:17:30;4.07;;;2.20;;
19032;SDS011;9649;51.042;13.804;2023-04-25T08:22:33;6.32;;;2.63;;
19032;SDS011;9649;51.042;13.804;2023-04-25T08:27:38;4.57;;;2.30;;
19032;SDS011;9649;51.042;13.804;2023-04-25T08:32:41;5.28;;;2.40;;
19032;SDS011;9649;51.042;13.804;2023-04-25T08:37:44;5.80;;;2.03;;
19032;SDS011;9649;51.042;13.804;2023-04-25T08:42:48;3.03;;;2.10;;
19032;SDS011;9649;51.042;13.804;2023-04-25T08:47:52;3.88;;;2.15;;
19032;SDS011;9649;51.042;13.804;2023-04-25T08:52:58;5.60;;;2.60;;
19032;SDS011;9649;51.042;13.804;2023-04-25T08:58:05;4.03;;;2.22;;
19032;SDS011;9649;51.042;13.804;2023-04-25T09:03:08;6.78;;;2.50;;
19032;SDS011;9649;51.042;13.804;2023-04-25T09:08:11;7.20;;;2.80;;
19032;SDS011;9649;51.042;13.804;2023-04-25T09:13:20;5.60;;;3.10;;
19032;SDS011;9649;51.042;13.804;2023-04-25T09:18:27;6.78;;;3.30;;
19032;SDS011;9649;51.042;13.804;2023-04-25T09:23:31;4.90;;;2.50;;
19032;SDS011;9649;51.042;13.804;2023-04-25T09:28:42;2.95;;;2.33;;
19032;SDS011;9649;51.042;13.804;2023-04-25T09:33:46;6.75;;;2.97;;
19032;SDS011;9649;51.042;13.804;2023-04-25T09:38:51;7.75;;;3.30;;
19032;SDS011;9649;51.042;13.804;2023-04-25T09:43:57;10.97;;;2.43;;
19032;SDS011;9649;51.042;13.804;2023-04-25T09:49:05;6.37;;;3.30;;
19032;SDS011;9649;51.042;13.804;2023-04-25T09:54:08;10.93;;;3.90;;
19032;SDS011;9649;51.042;13.804;2023-04-25T09:59:12;8.93;;;3.50;;
19032;SDS011;9649;51.042;13.804;2023-04-25T10:04:18;7.73;;;3.33;;
19032;SDS011;9649;51.042;13.804;2023-04-25T10:09:30;8.93;;;4.10;;
19032;SDS011;9649;51.042;13.804;2023-04-25T10:14:36;10.70;;;3.97;;
19032;SDS011;9649;51.042;13.804;2023-04-25T10:19:40;4.60;;;2.83;;
19032;SDS011;9649;51.042;13.804;2023-04-25T10:24:43;7.90;;;3.00;;
19032;SDS011;9649;51.042;13.804;2023-04-25T10:30:01;4.07;;;2.67;;
19032;SDS011;9649;51.042;13.804;2023-04-25T10:35:15;3.55;;;2.60;;
19032;SDS011;9649;51.042;13.804;2023-04-25T10:40:21;5.35;;;3.08;;
19032;SDS011;9649;51.042;13.804;2023-04-25T10:45:26;4.70;;;2.70;;
19032;SDS011;9649;51.042;13.804;2023-04-25T10:50:37;6.47;;;2.97;;
19032;SDS011;9649;51.042;13.804;2023-04-25T10:55:49;4.22;;;2.70;;
19032;SDS011;9649;51.042;13.804;2023-04-25T11:00:53;8.80;;;3.28;;
19032;SDS011;9649;51.042;13.804;2023-04-25T11:05:58;5.57;;;3.38;;
19032;SDS011;9649;51.042;13.804;2023-04-25T11:11:02;7.10;;;3.47;;
19032;SDS011;9649;51.042;13.804;2023-04-25T11:16:08;11.67;;;4.57;;
19032;SDS011;9649;51.042;13.804;2023-04-25T11:21:18;10.03;;;4.63;;
19032;SDS011;9649;51.042;13.804;2023-04-25T11:26:20;10.35;;;3.75;;
19032;SDS011;9649;51.042;13.804;2023-04-25T11:31:25;11.13;;;4.00;;
19032;SDS011;9649;51.042;13.804;2023-04-25T11:36:28;12.27;;;3.33;;
19032;SDS011;9649;51.042;13.804;2023-04-25T11:41:32;5.30;;;2.50;;
19032;SDS011;9649;51.042;13.804;2023-04-25T11:46:36;11.93;;;2.40;;
19032;SDS011;9649;51.042;13.804;2023-04-25T11:51:39;4.68;;;2.13;;
19032;SDS011;9649;51.042;13.804;2023-04-25T11:56:42;6.43;;;1.92;;
19032;SDS011;9649;51.042;13.804;2023-04-25T12:01:49;2.92;;;1.30;;
19032;SDS011;9649;51.042;13.804;2023-04-25T12:06:52;3.13;;;1.35;;
19032;SDS011;9649;51.042;13.804;2023-04-25T12:11:57;5.00;;;1.90;;
19032;SDS011;9649;51.042;13.804;2023-04-25T12:17:05;5.57;;;1.95;;
19032;SDS011;9649;51.042;13.804;2023-04-25T12:22:19;4.80;;;1.83;;
19032;SDS011;9649;51.042;13.804;2023-04-25T12:27:23;8.02;;;2.25;;
19032;SDS011;9649;51.042;13.804;2023-04-25T12:32:29;9.90;;;2.72;;
19032;SDS011;9649;51.042;13.804;2023-04-25T12:37:32;7.78;;;2.92;;
19032;SDS011;9649;51.042;13.804;2023-04-25T12:42:35;10.25;;;2.38;;
19032;SDS011;9649;51.042;13.804;2023-04-25T12:47:39;9.15;;;2.38;;
19032;SDS011;9649;51.042;13.804;2023-04-25T12:52:42;6.97;;;2.33;;
19032;SDS011;9649;51.042;13.804;2023-04-25T12:57:44;9.68;;;2.42;;
19032;SDS011;9649;51.042;13.804;2023-04-25T13:02:48;8.07;;;2.17;;
19032;SDS011;9649;51.042;13.804;2023-04-25T13:07:51;11.65;;;2.88;;
19032;SDS011;9649;51.042;13.804;2023-04-25T13:12:54;11.38;;;2.97;;
19032;SDS011;9649;51.042;13.804;2023-04-25T13:17:58;14.05;;;2.97;;
19032;SDS011;9649;51.042;13.804;2023-04-25T13:23:01;12.73;;;3.40;;
19032;SDS011;9649;51.042;13.804;2023-04-25T13:28:03;14.07;;;3.47;;
19032;SDS011;9649;51.042;13.804;2023-04-25T13:33:08;18.77;;;4.00;;
19032;SDS011;9649;51.042;13.804;2023-04-25T13:38:11;17.43;;;4.00;;
19032;SDS011;9649;51.042;13.804;2023-04-25T13:43:14;10.77;;;3.20;;
19032;SDS011;9649;51.042;13.804;2023-04-25T13:48:18;20.23;;;3.73;;
19032;SDS011;9649;51.042;13.804;2023-04-25T13:53:21;11.53;;;3.30;;
19032;SDS011;9649;51.042;13.804;2023-04-25T13:58:24;12.77;;;2.90;;
19032;SDS011;9649;51.042;13.804;2023-04-25T14:03:28;10.57;;;3.03;;
19032;SDS011;9649;51.042;13.804;2023-04-25T14:08:32;12.80;;;3.77;;
19032;SDS011;9649;51.042;13.804;2023-04-25T14:13:35;11.93;;;3.20;;
19032;SDS011;9649;51.042;13.804;2023-04-25T14:18:39;8.77;;;3.13;;
19032;SDS011;9649;51.042;13.804;2023-04-25T14:23:41;9.73;;;3.20;;
19032;SDS011;9649;51.042;13.804;2023-04-25T14:28:44;16.80;;;3.53;;
19032;SDS011;9649;51.042;13.804;2023-04-25T14:33:48;10.50;;;3.50;;
19032;SDS011;9649;51.042;13.804;2023-04-25T14:38:53;10.63;;;2.83;;
19032;SDS011;9649;51.042;13.804;2023-04-25T14:43:56;13.32;;;3.33;;
19032;SDS011;9649;51.042;13.804;2023-04-25T14:49:00;15.07;;;3.45;;
19032;SDS011;9649;51.042;13.804;2023-04-25T14:54:04;13.05;;;3.20;;
19032;SDS011;9649;51.042;13.804;2023-04-25T14:59:07;16.10;;;4.35;;
19032;SDS011;9649;51.042;13.804;2023-04-25T15:04:11;11.93;;;3.40;;
19032;SDS011;9649;51.042;13.804;2023-04-25T15:09:15;14.70;;;4.03;;
19032;SDS011;9649;51.042;13.804;2023-04-25T15:14:19;15.73;;;3.50;;
19032;SDS011;9649;51.042;13.804;2023-04-25T15:19:23;13.07;;;2.97;;
19032;SDS011;9649;51.042;13.804;2023-04-25T15:24:26;10.05;;;2.78;;
19032;SDS011;9649;51.042;13.804;2023-04-25T15:29:32;10.87;;;2.47;;
19032;SDS011;9649;51.042;13.804;2023-04-25T15:34:36;12.73;;;2.58;;
19032;SDS011;9649;51.042;13.804;2023-04-25T15:39:38;15.00;;;2.43;;
19032;SDS011;9649;51.042;13.804;2023-04-25T15:44:41;11.70;;;2.67;;
19032;SDS011;9649;51.042;13.804;2023-04-25T15:49:45;10.40;;;2.17;;
19032;SDS011;9649;51.042;13.804;2023-04-25T15:54:48;10.00;;;2.17;;
19032;SDS011;9649;51.042;13.804;2023-04-25T15:59:51;8.23;;;2.10;;
19032;SDS011;9649;51.042;13.804;2023-04-25T16:04:55;6.30;;;1.90;;
19032;SDS011;9649;51.042;13.804;2023-04-25T16:09:58;11.50;;;2.23;;
19032;SDS011;9649;51.042;13.804;2023-04-25T16:15:00;5.67;;;2.20;;
19032;SDS011;9649;51.042;13.804;2023-04-25T16:20:05;9.70;;;1.80;;
19032;SDS011;9649;51.042;13.804;2023-04-25T16:25:10;8.50;;;1.87;;
19032;SDS011;9649;51.042;13.804;2023-04-25T16:30:13;9.77;;;2.40;;
19032;SDS011;9649;51.042;13.804;2023-04-25T16:35:17;8.70;;;2.30;;
19032;SDS011;9649;51.042;13.804;2023-04-25T16:40:20;9.30;;;2.13;;
19032;SDS011;9649;51.042;13.804;2023-04-25T16:45:23;6.43;;;2.00;;
19032;SDS011;9649;51.042;13.804;2023-04-25T16:50:27;7.37;;;2.43;;
19032;SDS011;9649;51.042;13.804;2023-04-25T16:55:30;7.23;;;1.83;;
19032;SDS011;9649;51.042;13.804;2023-04-25T17:00:33;4.27;;;1.60;;
19032;SDS011;9649;51.042;13.804;2023-04-25T17:05:37;7.40;;;1.70;;
19032;SDS011;9649;51.042;13.804;2023-04-25T17:10:40;8.43;;;2.00;;
19032;SDS011;9649;51.042;13.804;2023-04-25T17:15:43;4.00;;;1.70;;
19032;SDS011;9649;51.042;13.804;2023-04-25T17:20:47;8.13;;;2.20;;
19032;SDS011;9649;51.042;13.804;2023-04-25T17:25:50;10.83;;;2.00;;
19032;SDS011;9649;51.042;13.804;2023-04-25T17:30:53;7.20;;;2.10;;
19032;SDS011;9649;51.042;13.804;2023-04-25T17:35:57;7.03;;;2.37;;
19032;SDS011;9649;51.042;13.804;2023-04-25T17:41:00;5.63;;;1.70;;
19032;SDS011;9649;51.042;13.804;2023-04-25T17:46:03;7.77;;;2.13;;
19032;SDS011;9649;51.042;13.804;2023-04-25T17:51:07;5.67;;;2.03;;
19032;SDS011;9649;51.042;13.804;2023-04-25T17:56:10;8.37;;;1.73;;
19032;SDS011;9649;51.042;13.804;2023-04-25T18:01:27;5.03;;;2.00;;
19032;SDS011;9649;51.042;13.804;2023-04-25T18:06:31;6.17;;;2.10;;
19032;SDS011;9649;51.042;13.804;2023-04-25T18:11:34;12.40;;;2.03;;
19032;SDS011;9649;51.042;13.804;2023-04-25T18:16:37;5.90;;;2.00;;
19032;SDS011;9649;51.042;13.804;2023-04-25T18:21:41;9.17;;;2.30;;
19032;SDS011;9649;51.042;13.804;2023-04-25T18:26:50;6.87;;;1.97;;
19032;SDS011;9649;51.042;13.804;2023-04-25T18:32:54;6.07;;;2.00;;
19032;SDS011;9649;51.042;13.804;2023-04-25T18:50:13;11.43;;;1.90;;
19032;SDS011;9649;51.042;13.804;2023-04-25T18:55:57;6.03;;;1.70;;
19032;SDS011;9649;51.042;13.804;2023-04-25T19:01:37;7.87;;;2.23;;
19032;SDS011;9649;51.042;13.804;2023-04-25T19:07:11;7.07;;;1.97;;
19032;SDS011;9649;51.042;13.804;2023-04-25T19:12:52;8.97;;;1.87;;
19032;SDS011;9649;51.042;13.804;2023-04-25T19:18:18;8.73;;;2.00;;
19032;SDS011;9649;51.042;13.804;2023-04-25T19:23:43;6.80;;;1.80;;
19032;SDS011;9649;51.042;13.804;2023-04-25T19:29:14;6.07;;;1.70;;
19032;SDS011;9649;51.042;13.804;2023-04-25T19:34:58;5.57;;;1.97;;
19032;SDS011;9649;51.042;13.804;2023-04-25T19:40:16;3.60;;;1.80;;
19032;SDS011;9649;51.042;13.804;2023-04-25T19:45:39;6.30;;;1.90;;
19032;SDS011;9649;51.042;13.804;2023-04-25T19:51:17;6.97;;;2.20;;
19032;SDS011;9649;51.042;13.804;2023-04-25T19:56:43;6.27;;;2.17;;
19032;SDS011;9649;51.042;13.804;2023-04-25T20:02:05;6.03;;;2.17;;
19032;SDS011;9649;51.042;13.804;2023-04-25T20:07:23;8.27;;;1.80;;
19032;SDS011;9649;51.042;13.804;2023-04-25T20:12:37;9.77;;;2.30;;
19032;SDS011;9649;51.042;13.804;2023-04-25T20:18:04;11.40;;;2.17;;
19032;SDS011;9649;51.042;13.804;2023-04-25T20:23:39;5.37;;;1.93;;
19032;SDS011;9649;51.042;13.804;2023-04-25T20:28:57;6.00;;;2.00;;
19032;SDS011;9649;51.042;13.804;2023-04-25T20:46:37;7.07;;;2.03;;
19032;SDS011;9649;51.042;13.804;2023-04-25T20:52:20;6.47;;;1.97;;
19032;SDS011;9649;51.042;13.804;2023-04-25T21:02:59;4.73;;;1.97;;
19032;SDS011;9649;51.042;13.804;2023-04-25T21:08:18;6.40;;;1.90;;
19032;SDS011;9649;51.042;13.804;2023-04-25T21:13:22;6.57;;;1.90;;
19032;SDS011;9649;51.042;13.804;2023-04-25T21:18:27;5.70;;;2.07;;
19032;SDS011;9649;51.042;13.804;2023-04-25T21:23:32;7.67;;;1.97;;
19032;SDS011;9649;51.042;13.804;2023-04-25T21:28:36;5.30;;;1.93;;
19032;SDS011;9649;51.042;13.804;2023-04-25T21:33:38;4.77;;;1.73;;
19032;SDS011;9649;51.042;13.804;2023-04-25T21:38:41;4.33;;;1.60;;
19032;SDS011;9649;51.042;13.804;2023-04-25T21:43:45;4.83;;;1.83;;
19032;SDS011;9649;51.042;13.804;2023-04-25T21:48:48;5.77;;;1.57;;
19032;SDS011;9649;51.042;13.804;2023-04-25T21:53:52;6.10;;;1.93;;
19032;SDS011;9649;51.042;13.804;2023-04-25T21:58:56;4.63;;;1.60;;
19032;SDS011;9649;51.042;13.804;2023-04-25T22:03:58;10.33;;;1.70;;
19032;SDS011;9649;51.042;13.804;2023-04-25T22:09:01;3.93;;;1.60;;
19032;SDS011;9649;51.042;13.804;2023-04-25T22:14:06;5.50;;;2.13;;
19032;SDS011;9649;51.042;13.804;2023-04-25T22:19:08;6.00;;;1.70;;
19032;SDS011;9649;51.042;13.804;2023-04-25T22:24:11;4.90;;;1.40;;
19032;SDS011;9649;51.042;13.804;2023-04-25T22:29:16;5.93;;;1.60;;
19032;SDS011;9649;51.042;13.804;2023-04-25T22:34:19;5.23;;;1.63;;
19032;SDS011;9649;51.042;13.804;2023-04-25T22:39:21;5.70;;;1.53;;
19032;SDS011;9649;51.042;13.804;2023-04-25T22:44:25;6.43;;;1.50;;
19032;SDS011;9649;51.042;13.804;2023-04-25T22:49:28;5.77;;;1.60;;
19032;SDS011;9649;51.042;13.804;2023-04-25T22:54:31;5.00;;;1.60;;
19032;SDS011;9649;51.042;13.804;2023-04-25T22:59:35;5.93;;;1.60;;
19032;SDS011;9649;51.042;13.804;2023-04-25T23:04:38;4.27;;;1.40;;
19032;SDS011;9649;51.042;13.804;2023-04-25T23:09:41;4.57;;;1.83;;
19032;SDS011;9649;51.042;13.804;2023-04-25T23:14:48;6.10;;;2.10;;
19032;SDS011;9649;51.042;13.804;2023-04-25T23:19:51;5.53;;;1.90;;
19032;SDS011;9649;51.042;13.804;2023-04-25T23:24:54;6.63;;;1.73;;
19032;SDS011;9649;51.042;13.804;2023-04-25T23:29:58;3.87;;;1.80;;
19032;SDS011;9649;51.042;13.804;2023-04-25T23:35:01;6.33;;;2.07;;
19032;SDS011;9649;51.042;13.804;2023-04-25T23:40:05;7.23;;;1.93;;
19032;SDS011;9649;51.042;13.804;2023-04-25T23:45:11;6.90;;;2.00;;
19032;SDS011;9649;51.042;13.804;2023-04-25T23:50:15;3.57;;;2.00;;
19032;SDS011;9649;51.042;13.804;2023-04-25T23:55:18;6.67;;;2.50;;
